sensor_id;sensor_type;location;lat;lon;timestamp;temperature;humidity
24144;DHT22;12307;50.828;6.080;2024-01-15T00:01:04;15.70;53.80
24144;DHT22;12307;50.828;6.080;2024-01-15T00:03:30;15.70;53.80
24144;DHT22;12307;50.828;6.080;2024-01-15T00:05:56;15.70;53.80
24144;DHT22;12307;50.828;6.080;2024-01-15T00:08:21;15.70;53.80
24144;DHT22;12307;50.828;6.080;2024-01-15T00:10:47;15.70;53.80
24144;DHT22;12307;50.828;6.080;2024-01-15T00:13:13;15.70;53.80
24144;DHT22;12307;50.828;6.080;2024-01-15T00:15:38;15.70;53.80
24144;DHT22;12307;50.828;6.080;2024-01-15T00:18:06;15.70;53.80
24144;DHT22;12307;50.828;6.080;2024-01-15T00:20:31;15.70;53.80
24144;DHT22;12307;50.828;6.080;2024-01-15T00:22:57;15.70;53.80
24144;DHT22;12307;50.828;6.080;2024-01-15T00:25:23;15.70;53.80
24144;DHT22;12307;50.828;6.080;2024-01-15T00:27:49;15.70;53.80
24144;DHT22;12307;50.828;6.080;2024-01-15T00:30:15;15.70;53.80
24144;DHT22;12307;50.828;6.080;2024-01-15T00:32:41;15.70;53.80
24144;DHT22;12307;50.828;6.080;2024-01-15T00:35:08;15.70;53.80
24144;DHT22;12307;50.828;6.080;2024-01-15T00:37:34;15.70;53.80
24144;DHT22;12307;50.828;6.080;2024-01-15T00:40:00;15.70;53.80
24144;DHT22;12307;50.828;6.080;2024-01-15T00:42:26;15.70;53.80
24144;DHT22;12307;50.828;6.080;2024-01-15T00:44:51;15.70;53.80
24144;DHT22;12307;50.828;6.080;2024-01-15T00:47:18;15.70;53.80
24144;DHT22;12307;50.828;6.080;2024-01-15T00:49:43;15.70;53.80
24144;DHT22;12307;50.828;6.080;2024-01-15T00:52:11;15.80;53.80
24144;DHT22;12307;50.828;6.080;2024-01-15T00:54:36;15.80;53.80
24144;DHT22;12307;50.828;6.080;2024-01-15T00:57:03;15.80;53.90
24144;DHT22;12307;50.828;6.080;2024-01-15T00:59:29;15.80;53.90
24144;DHT22;12307;50.828;6.080;2024-01-15T01:01:55;15.80;53.80
24144;DHT22;12307;50.828;6.080;2024-01-15T01:04:21;15.70;53.80
24144;DHT22;12307;50.828;6.080;2024-01-15T01:06:46;15.80;53.80
24144;DHT22;12307;50.828;6.080;2024-01-15T01:09:13;15.80;53.90
24144;DHT22;12307;50.828;6.080;2024-01-15T01:11:39;15.80;53.80
24144;DHT22;12307;50.828;6.080;2024-01-15T01:14:05;15.80;53.80
24144;DHT22;12307;50.828;6.080;2024-01-15T01:16:31;15.80;53.80
24144;DHT22;12307;50.828;6.080;2024-01-15T01:18:59;15.80;53.80
24144;DHT22;12307;50.828;6.080;2024-01-15T01:21:25;15.80;54.40
24144;DHT22;12307;50.828;6.080;2024-01-15T01:23:51;15.80;53.80
24144;DHT22;12307;50.828;6.080;2024-01-15T01:26:18;15.80;53.80
24144;DHT22;12307;50.828;6.080;2024-01-15T01:28:44;15.80;53.80
24144;DHT22;12307;50.828;6.080;2024-01-15T01:31:09;15.80;53.80
24144;DHT22;12307;50.828;6.080;2024-01-15T01:33:35;15.80;53.80
24144;DHT22;12307;50.828;6.080;2024-01-15T01:36:01;15.80;53.80
24144;DHT22;12307;50.828;6.080;2024-01-15T01:38:32;15.80;53.90
24144;DHT22;12307;50.828;6.080;2024-01-15T01:40:57;15.80;53.90
24144;DHT22;12307;50.828;6.080;2024-01-15T01:43:24;15.80;53.90
24144;DHT22;12307;50.828;6.080;2024-01-15T01:45:50;15.80;53.90
24144;DHT22;12307;50.828;6.080;2024-01-15T01:48:16;15.80;53.90
24144;DHT22;12307;50.828;6.080;2024-01-15T01:50:42;15.80;53.90
24144;DHT22;12307;50.828;6.080;2024-01-15T01:53:08;15.80;53.90
24144;DHT22;12307;50.828;6.080;2024-01-15T01:55:36;15.80;53.90
24144;DHT22;12307;50.828;6.080;2024-01-15T01:58:04;15.80;53.90
24144;DHT22;12307;50.828;6.080;2024-01-15T02:00:32;15.80;53.90
24144;DHT22;12307;50.828;6.080;2024-01-15T02:02:59;15.80;53.90
24144;DHT22;12307;50.828;6.080;2024-01-15T02:05:25;15.80;53.90
24144;DHT22;12307;50.828;6.080;2024-01-15T02:07:52;15.70;53.80
24144;DHT22;12307;50.828;6.080;2024-01-15T02:10:18;15.80;53.90
24144;DHT22;12307;50.828;6.080;2024-01-15T02:12:44;15.80;53.90
24144;DHT22;12307;50.828;6.080;2024-01-15T02:15:10;15.80;53.90
24144;DHT22;12307;50.828;6.080;2024-01-15T02:17:56;15.80;53.90
24144;DHT22;12307;50.828;6.080;2024-01-15T02:20:22;15.80;53.90
24144;DHT22;12307;50.828;6.080;2024-01-15T02:22:48;15.80;53.90
24144;DHT22;12307;50.828;6.080;2024-01-15T02:25:15;15.80;53.90
24144;DHT22;12307;50.828;6.080;2024-01-15T02:27:41;15.80;53.90
24144;DHT22;12307;50.828;6.080;2024-01-15T02:30:08;15.80;54.00
24144;DHT22;12307;50.828;6.080;2024-01-15T02:32:35;15.80;54.00
24144;DHT22;12307;50.828;6.080;2024-01-15T02:35:01;15.80;53.90
24144;DHT22;12307;50.828;6.080;2024-01-15T02:37:26;15.80;54.00
24144;DHT22;12307;50.828;6.080;2024-01-15T02:39:52;15.80;54.00
24144;DHT22;12307;50.828;6.080;2024-01-15T02:42:19;15.80;54.00
24144;DHT22;12307;50.828;6.080;2024-01-15T02:44:45;15.80;54.00
24144;DHT22;12307;50.828;6.080;2024-01-15T02:47:11;15.80;54.00
24144;DHT22;12307;50.828;6.080;2024-01-15T02:49:36;15.80;54.00
24144;DHT22;12307;50.828;6.080;2024-01-15T02:52:03;15.80;54.00
24144;DHT22;12307;50.828;6.080;2024-01-15T02:54:28;15.80;54.00
24144;DHT22;12307;50.828;6.080;2024-01-15T02:56:54;15.80;54.00
24144;DHT22;12307;50.828;6.080;2024-01-15T02:59:21;15.80;54.00
24144;DHT22;12307;50.828;6.080;2024-01-15T03:01:47;15.80;54.00
24144;DHT22;12307;50.828;6.080;2024-01-15T03:04:12;15.80;54.10
24144;DHT22;12307;50.828;6.080;2024-01-15T03:06:38;15.80;54.10
24144;DHT22;12307;50.828;6.080;2024-01-15T03:09:04;15.70;54.00
24144;DHT22;12307;50.828;6.080;2024-01-15T03:11:37;15.80;54.10
24144;DHT22;12307;50.828;6.080;2024-01-15T03:14:02;15.80;54.10
24144;DHT22;12307;50.828;6.080;2024-01-15T03:16:29;15.80;54.10
24144;DHT22;12307;50.828;6.080;2024-01-15T03:18:55;15.70;54.00
24144;DHT22;12307;50.828;6.080;2024-01-15T03:21:21;15.80;54.10
24144;DHT22;12307;50.828;6.080;2024-01-15T03:23:46;15.80;54.10
24144;DHT22;12307;50.828;6.080;2024-01-15T03:26:12;15.80;54.10
24144;DHT22;12307;50.828;6.080;2024-01-15T03:28:38;15.80;54.10
24144;DHT22;12307;50.828;6.080;2024-01-15T03:31:03;15.70;54.00
24144;DHT22;12307;50.828;6.080;2024-01-15T03:33:31;15.80;54.10
24144;DHT22;12307;50.828;6.080;2024-01-15T03:35:56;15.80;54.10
24144;DHT22;12307;50.828;6.080;2024-01-15T03:38:23;15.80;54.70
24144;DHT22;12307;50.828;6.080;2024-01-15T03:40:49;15.80;54.10
24144;DHT22;12307;50.828;6.080;2024-01-15T03:43:14;15.80;54.20
24144;DHT22;12307;50.828;6.080;2024-01-15T03:45:40;15.80;54.10
24144;DHT22;12307;50.828;6.080;2024-01-15T03:48:06;15.80;54.20
24144;DHT22;12307;50.828;6.080;2024-01-15T03:50:33;15.80;54.20
24144;DHT22;12307;50.828;6.080;2024-01-15T03:52:59;15.80;54.20
24144;DHT22;12307;50.828;6.080;2024-01-15T03:55:25;15.80;54.20
24144;DHT22;12307;50.828;6.080;2024-01-15T03:57:51;15.80;54.20
24144;DHT22;12307;50.828;6.080;2024-01-15T04:00:17;15.80;54.20
24144;DHT22;12307;50.828;6.080;2024-01-15T04:02:43;15.80;54.20
24144;DHT22;12307;50.828;6.080;2024-01-15T04:05:09;15.80;54.20
24144;DHT22;12307;50.828;6.080;2024-01-15T04:07:37;15.80;54.20
24144;DHT22;12307;50.828;6.080;2024-01-15T04:10:03;15.80;54.20
24144;DHT22;12307;50.828;6.080;2024-01-15T04:12:28;15.80;54.20
24144;DHT22;12307;50.828;6.080;2024-01-15T04:14:54;15.80;54.20
24144;DHT22;12307;50.828;6.080;2024-01-15T04:17:20;15.80;54.20
24144;DHT22;12307;50.828;6.080;2024-01-15T04:19:47;15.80;54.20
24144;DHT22;12307;50.828;6.080;2024-01-15T04:22:13;15.80;54.20
24144;DHT22;12307;50.828;6.080;2024-01-15T04:24:40;15.80;54.20
24144;DHT22;12307;50.828;6.080;2024-01-15T04:27:07;15.80;54.20
24144;DHT22;12307;50.828;6.080;2024-01-15T04:29:32;15.80;54.20
24144;DHT22;12307;50.828;6.080;2024-01-15T04:31:58;15.80;54.20
24144;DHT22;12307;50.828;6.080;2024-01-15T04:34:24;15.80;54.20
24144;DHT22;12307;50.828;6.080;2024-01-15T04:36:49;15.80;54.20
24144;DHT22;12307;50.828;6.080;2024-01-15T04:39:15;15.80;54.20
24144;DHT22;12307;50.828;6.080;2024-01-15T04:41:42;15.80;54.20
24144;DHT22;12307;50.828;6.080;2024-01-15T04:44:08;15.80;54.20
24144;DHT22;12307;50.828;6.080;2024-01-15T04:46:33;15.80;54.20
24144;DHT22;12307;50.828;6.080;2024-01-15T04:48:59;15.80;54.20
24144;DHT22;12307;50.828;6.080;2024-01-15T04:51:25;15.80;54.20
24144;DHT22;12307;50.828;6.080;2024-01-15T04:53:50;15.80;54.20
24144;DHT22;12307;50.828;6.080;2024-01-15T04:56:16;15.80;54.20
24144;DHT22;12307;50.828;6.080;2024-01-15T04:58:43;15.80;54.20
24144;DHT22;12307;50.828;6.080;2024-01-15T05:01:09;15.80;54.20
24144;DHT22;12307;50.828;6.080;2024-01-15T05:03:35;15.80;54.20
24144;DHT22;12307;50.828;6.080;2024-01-15T05:06:01;15.80;54.30
24144;DHT22;12307;50.828;6.080;2024-01-15T05:08:27;15.80;54.20
24144;DHT22;12307;50.828;6.080;2024-01-15T05:10:52;15.80;54.20
24144;DHT22;12307;50.828;6.080;2024-01-15T05:13:18;15.80;54.20
24144;DHT22;12307;50.828;6.080;2024-01-15T05:15:45;15.80;54.20
24144;DHT22;12307;50.828;6.080;2024-01-15T05:18:11;15.80;54.20
24144;DHT22;12307;50.828;6.080;2024-01-15T05:20:37;15.80;54.20
24144;DHT22;12307;50.828;6.080;2024-01-15T05:23:03;15.80;54.20
24144;DHT22;12307;50.828;6.080;2024-01-15T05:25:29;15.80;54.20
24144;DHT22;12307;50.828;6.080;2024-01-15T05:27:54;15.80;54.20
24144;DHT22;12307;50.828;6.080;2024-01-15T05:30:20;15.80;54.20
24144;DHT22;12307;50.828;6.080;2024-01-15T05:32:47;15.80;54.30
24144;DHT22;12307;50.828;6.080;2024-01-15T05:35:13;15.80;54.20
24144;DHT22;12307;50.828;6.080;2024-01-15T05:37:41;15.80;54.20
24144;DHT22;12307;50.828;6.080;2024-01-15T05:40:07;15.80;54.90
24144;DHT22;12307;50.828;6.080;2024-01-15T05:42:34;15.80;54.20
24144;DHT22;12307;50.828;6.080;2024-01-15T05:45:00;15.80;54.20
24144;DHT22;12307;50.828;6.080;2024-01-15T05:47:27;15.80;54.20
24144;DHT22;12307;50.828;6.080;2024-01-15T05:49:54;15.80;54.20
24144;DHT22;12307;50.828;6.080;2024-01-15T05:52:20;15.80;54.20
24144;DHT22;12307;50.828;6.080;2024-01-15T05:54:47;15.80;54.20
24144;DHT22;12307;50.828;6.080;2024-01-15T05:57:13;15.80;54.20
24144;DHT22;12307;50.828;6.080;2024-01-15T05:59:38;15.80;54.20
24144;DHT22;12307;50.828;6.080;2024-01-15T06:02:04;15.80;54.20
24144;DHT22;12307;50.828;6.080;2024-01-15T06:04:30;15.80;54.20
24144;DHT22;12307;50.828;6.080;2024-01-15T06:06:57;15.80;54.20
24144;DHT22;12307;50.828;6.080;2024-01-15T06:09:23;15.80;54.20
24144;DHT22;12307;50.828;6.080;2024-01-15T06:11:48;15.80;54.20
24144;DHT22;12307;50.828;6.080;2024-01-15T06:14:14;15.80;54.20
24144;DHT22;12307;50.828;6.080;2024-01-15T06:16:40;15.80;54.30
24144;DHT22;12307;50.828;6.080;2024-01-15T06:19:05;15.80;54.30
24144;DHT22;12307;50.828;6.080;2024-01-15T06:21:31;15.80;54.20
24144;DHT22;12307;50.828;6.080;2024-01-15T06:23:58;15.80;54.20
24144;DHT22;12307;50.828;6.080;2024-01-15T06:26:24;15.80;54.30
24144;DHT22;12307;50.828;6.080;2024-01-15T06:28:50;15.80;54.30
24144;DHT22;12307;50.828;6.080;2024-01-15T06:31:16;15.80;54.30
24144;DHT22;12307;50.828;6.080;2024-01-15T06:33:41;15.80;54.30
24144;DHT22;12307;50.828;6.080;2024-01-15T06:36:07;15.80;54.30
24144;DHT22;12307;50.828;6.080;2024-01-15T06:38:33;15.80;54.30
24144;DHT22;12307;50.828;6.080;2024-01-15T06:41:00;15.80;54.30
24144;DHT22;12307;50.828;6.080;2024-01-15T06:43:26;15.80;54.30
24144;DHT22;12307;50.828;6.080;2024-01-15T06:45:52;15.80;54.40
24144;DHT22;12307;50.828;6.080;2024-01-15T06:48:18;15.80;54.40
24144;DHT22;12307;50.828;6.080;2024-01-15T06:50:44;15.80;54.40
24144;DHT22;12307;50.828;6.080;2024-01-15T06:53:10;15.80;54.40
24144;DHT22;12307;50.828;6.080;2024-01-15T06:55:35;15.80;54.40
24144;DHT22;12307;50.828;6.080;2024-01-15T06:58:03;15.80;54.40
24144;DHT22;12307;50.828;6.080;2024-01-15T07:00:29;15.80;54.50
24144;DHT22;12307;50.828;6.080;2024-01-15T07:02:54;15.80;54.50
24144;DHT22;12307;50.828;6.080;2024-01-15T07:05:20;15.80;54.50
24144;DHT22;12307;50.828;6.080;2024-01-15T07:07:46;15.80;54.50
24144;DHT22;12307;50.828;6.080;2024-01-15T07:10:13;15.80;54.50
24144;DHT22;12307;50.828;6.080;2024-01-15T07:12:38;15.80;54.50
24144;DHT22;12307;50.828;6.080;2024-01-15T07:15:06;15.80;54.60
24144;DHT22;12307;50.828;6.080;2024-01-15T07:17:33;15.80;54.50
24144;DHT22;12307;50.828;6.080;2024-01-15T07:19:59;15.80;54.50
24144;DHT22;12307;50.828;6.080;2024-01-15T07:22:24;15.80;54.50
24144;DHT22;12307;50.828;6.080;2024-01-15T07:24:50;15.70;54.50
24144;DHT22;12307;50.828;6.080;2024-01-15T07:27:16;15.70;54.50
24144;DHT22;12307;50.828;6.080;2024-01-15T07:29:42;15.70;54.60
24144;DHT22;12307;50.828;6.080;2024-01-15T07:32:10;15.70;54.60
24144;DHT22;12307;50.828;6.080;2024-01-15T07:34:35;15.70;54.60
24144;DHT22;12307;50.828;6.080;2024-01-15T07:37:01;15.70;54.80
24144;DHT22;12307;50.828;6.080;2024-01-15T07:39:27;15.60;54.70
24144;DHT22;12307;50.828;6.080;2024-01-15T07:41:54;15.60;54.70
24144;DHT22;12307;50.828;6.080;2024-01-15T07:44:20;15.60;54.60
24144;DHT22;12307;50.828;6.080;2024-01-15T07:46:45;15.60;54.60
24144;DHT22;12307;50.828;6.080;2024-01-15T07:49:13;15.60;54.50
24144;DHT22;12307;50.828;6.080;2024-01-15T07:51:39;15.50;54.40
24144;DHT22;12307;50.828;6.080;2024-01-15T07:54:06;15.50;54.30
24144;DHT22;12307;50.828;6.080;2024-01-15T07:56:32;15.50;54.30
24144;DHT22;12307;50.828;6.080;2024-01-15T07:58:58;15.40;54.10
24144;DHT22;12307;50.828;6.080;2024-01-15T08:01:24;15.40;54.00
24144;DHT22;12307;50.828;6.080;2024-01-15T08:03:49;15.40;54.00
24144;DHT22;12307;50.828;6.080;2024-01-15T08:06:16;15.40;53.90
24144;DHT22;12307;50.828;6.080;2024-01-15T08:08:42;15.40;53.90
24144;DHT22;12307;50.828;6.080;2024-01-15T08:11:08;15.40;53.90
24144;DHT22;12307;50.828;6.080;2024-01-15T08:13:34;15.40;53.80
24144;DHT22;12307;50.828;6.080;2024-01-15T08:15:59;15.40;53.70
24144;DHT22;12307;50.828;6.080;2024-01-15T08:18:25;15.40;53.70
24144;DHT22;12307;50.828;6.080;2024-01-15T08:20:51;15.40;53.60
24144;DHT22;12307;50.828;6.080;2024-01-15T08:23:18;15.40;53.60
24144;DHT22;12307;50.828;6.080;2024-01-15T08:25:45;15.40;53.60
24144;DHT22;12307;50.828;6.080;2024-01-15T08:28:11;15.40;53.60
24144;DHT22;12307;50.828;6.080;2024-01-15T08:30:37;15.50;53.70
24144;DHT22;12307;50.828;6.080;2024-01-15T08:33:03;15.50;53.80
24144;DHT22;12307;50.828;6.080;2024-01-15T08:35:28;15.50;53.70
24144;DHT22;12307;50.828;6.080;2024-01-15T08:37:54;15.50;53.80
24144;DHT22;12307;50.828;6.080;2024-01-15T08:40:22;15.50;53.80
24144;DHT22;12307;50.828;6.080;2024-01-15T08:42:47;15.50;53.80
24144;DHT22;12307;50.828;6.080;2024-01-15T08:45:14;15.50;53.80
24144;DHT22;12307;50.828;6.080;2024-01-15T08:47:39;15.50;53.80
24144;DHT22;12307;50.828;6.080;2024-01-15T08:50:06;15.50;53.80
24144;DHT22;12307;50.828;6.080;2024-01-15T08:52:35;15.50;53.80
24144;DHT22;12307;50.828;6.080;2024-01-15T08:55:00;15.50;53.90
24144;DHT22;12307;50.828;6.080;2024-01-15T08:57:27;15.50;53.90
24144;DHT22;12307;50.828;6.080;2024-01-15T08:59:53;15.50;53.90
24144;DHT22;12307;50.828;6.080;2024-01-15T09:02:19;15.60;54.00
24144;DHT22;12307;50.828;6.080;2024-01-15T09:04:46;15.60;53.90
24144;DHT22;12307;50.828;6.080;2024-01-15T09:07:11;15.60;53.90
24144;DHT22;12307;50.828;6.080;2024-01-15T09:09:37;15.50;53.90
24144;DHT22;12307;50.828;6.080;2024-01-15T09:12:03;15.60;54.00
24144;DHT22;12307;50.828;6.080;2024-01-15T09:14:30;15.60;54.10
24144;DHT22;12307;50.828;6.080;2024-01-15T09:16:56;15.60;54.70
24144;DHT22;12307;50.828;6.080;2024-01-15T09:19:22;15.60;54.20
24144;DHT22;12307;50.828;6.080;2024-01-15T09:21:48;15.50;54.10
24144;DHT22;12307;50.828;6.080;2024-01-15T09:24:13;15.50;54.10
24144;DHT22;12307;50.828;6.080;2024-01-15T09:26:39;15.50;54.20
24144;DHT22;12307;50.828;6.080;2024-01-15T09:29:05;15.60;54.20
24144;DHT22;12307;50.828;6.080;2024-01-15T09:31:32;15.50;54.20
24144;DHT22;12307;50.828;6.080;2024-01-15T09:33:58;15.50;54.30
24144;DHT22;12307;50.828;6.080;2024-01-15T09:36:25;15.60;54.40
24144;DHT22;12307;50.828;6.080;2024-01-15T09:38:51;15.50;54.40
24144;DHT22;12307;50.828;6.080;2024-01-15T09:41:17;15.50;54.40
24144;DHT22;12307;50.828;6.080;2024-01-15T09:43:43;15.50;54.40
24144;DHT22;12307;50.828;6.080;2024-01-15T09:46:09;15.50;54.50
24144;DHT22;12307;50.828;6.080;2024-01-15T09:48:36;15.50;54.50
24144;DHT22;12307;50.828;6.080;2024-01-15T09:51:04;15.50;54.50
24144;DHT22;12307;50.828;6.080;2024-01-15T09:53:31;15.60;54.60
24144;DHT22;12307;50.828;6.080;2024-01-15T09:55:58;15.50;54.60
24144;DHT22;12307;50.828;6.080;2024-01-15T09:58:23;15.50;54.60
24144;DHT22;12307;50.828;6.080;2024-01-15T10:00:50;15.50;54.70
24144;DHT22;12307;50.828;6.080;2024-01-15T10:03:16;15.50;54.70
24144;DHT22;12307;50.828;6.080;2024-01-15T10:05:43;15.50;54.70
24144;DHT22;12307;50.828;6.080;2024-01-15T10:08:09;15.60;54.80
24144;DHT22;12307;50.828;6.080;2024-01-15T10:10:36;15.60;54.80
24144;DHT22;12307;50.828;6.080;2024-01-15T10:13:04;15.60;54.80
24144;DHT22;12307;50.828;6.080;2024-01-15T10:15:34;15.60;54.90
24144;DHT22;12307;50.828;6.080;2024-01-15T10:17:59;15.60;54.90
24144;DHT22;12307;50.828;6.080;2024-01-15T10:20:25;15.60;54.90
24144;DHT22;12307;50.828;6.080;2024-01-15T10:22:52;15.60;54.90
24144;DHT22;12307;50.828;6.080;2024-01-15T10:25:18;15.60;55.00
24144;DHT22;12307;50.828;6.080;2024-01-15T10:27:59;15.60;55.00
24144;DHT22;12307;50.828;6.080;2024-01-15T10:30:25;15.60;55.00
24144;DHT22;12307;50.828;6.080;2024-01-15T10:32:57;15.60;55.00
24144;DHT22;12307;50.828;6.080;2024-01-15T10:35:27;15.60;55.00
24144;DHT22;12307;50.828;6.080;2024-01-15T10:37:54;15.60;55.00
24144;DHT22;12307;50.828;6.080;2024-01-15T10:40:20;15.60;55.00
24144;DHT22;12307;50.828;6.080;2024-01-15T10:42:45;15.60;55.00
24144;DHT22;12307;50.828;6.080;2024-01-15T10:45:13;15.70;54.90
24144;DHT22;12307;50.828;6.080;2024-01-15T10:47:39;15.70;54.90
24144;DHT22;12307;50.828;6.080;2024-01-15T10:50:06;15.70;54.80
24144;DHT22;12307;50.828;6.080;2024-01-15T10:52:33;15.70;54.90
24144;DHT22;12307;50.828;6.080;2024-01-15T10:55:01;15.80;54.80
24144;DHT22;12307;50.828;6.080;2024-01-15T10:57:28;15.80;54.90
24144;DHT22;12307;50.828;6.080;2024-01-15T10:59:55;15.80;54.80
24144;DHT22;12307;50.828;6.080;2024-01-15T11:02:20;15.90;54.90
24144;DHT22;12307;50.828;6.080;2024-01-15T11:04:46;15.90;54.80
24144;DHT22;12307;50.828;6.080;2024-01-15T11:07:13;15.90;54.80
24144;DHT22;12307;50.828;6.080;2024-01-15T11:09:39;16.00;54.80
24144;DHT22;12307;50.828;6.080;2024-01-15T11:12:10;16.00;54.80
24144;DHT22;12307;50.828;6.080;2024-01-15T11:14:39;16.00;54.70
24144;DHT22;12307;50.828;6.080;2024-01-15T11:17:05;16.00;54.70
24144;DHT22;12307;50.828;6.080;2024-01-15T11:19:36;16.10;54.70
24144;DHT22;12307;50.828;6.080;2024-01-15T11:22:03;16.10;54.70
24144;DHT22;12307;50.828;6.080;2024-01-15T11:24:36;16.10;54.70
24144;DHT22;12307;50.828;6.080;2024-01-15T11:27:02;16.10;55.20
24144;DHT22;12307;50.828;6.080;2024-01-15T11:29:33;16.00;54.50
24144;DHT22;12307;50.828;6.080;2024-01-15T11:32:07;16.00;54.50
24144;DHT22;12307;50.828;6.080;2024-01-15T11:34:52;16.00;54.60
24144;DHT22;12307;50.828;6.080;2024-01-15T11:37:19;16.10;54.60
24144;DHT22;12307;50.828;6.080;2024-01-15T11:39:45;16.10;54.70
24144;DHT22;12307;50.828;6.080;2024-01-15T11:42:13;16.10;54.60
24144;DHT22;12307;50.828;6.080;2024-01-15T11:44:41;16.10;54.60
24144;DHT22;12307;50.828;6.080;2024-01-15T11:47:07;16.20;54.70
24144;DHT22;12307;50.828;6.080;2024-01-15T11:49:53;16.30;54.60
24144;DHT22;12307;50.828;6.080;2024-01-15T11:52:23;16.40;54.60
24144;DHT22;12307;50.828;6.080;2024-01-15T11:54:57;16.50;54.60
24144;DHT22;12307;50.828;6.080;2024-01-15T11:57:33;16.60;54.60
24144;DHT22;12307;50.828;6.080;2024-01-15T12:00:00;16.70;54.60
24144;DHT22;12307;50.828;6.080;2024-01-15T12:02:27;16.80;54.60
24144;DHT22;12307;50.828;6.080;2024-01-15T12:04:52;16.90;54.60
24144;DHT22;12307;50.828;6.080;2024-01-15T12:07:18;17.00;54.60
24144;DHT22;12307;50.828;6.080;2024-01-15T12:09:44;17.10;54.50
24144;DHT22;12307;50.828;6.080;2024-01-15T12:12:16;17.10;54.40
24144;DHT22;12307;50.828;6.080;2024-01-15T12:14:45;17.10;54.20
24144;DHT22;12307;50.828;6.080;2024-01-15T12:17:12;17.10;54.10
24144;DHT22;12307;50.828;6.080;2024-01-15T12:19:38;17.10;54.10
24144;DHT22;12307;50.828;6.080;2024-01-15T12:22:04;17.10;53.90
24144;DHT22;12307;50.828;6.080;2024-01-15T12:24:30;17.10;53.80
24144;DHT22;12307;50.828;6.080;2024-01-15T12:26:55;17.10;53.70
24144;DHT22;12307;50.828;6.080;2024-01-15T12:29:21;17.00;53.60
24144;DHT22;12307;50.828;6.080;2024-01-15T12:31:47;17.00;53.60
24144;DHT22;12307;50.828;6.080;2024-01-15T12:34:15;17.00;53.60
24144;DHT22;12307;50.828;6.080;2024-01-15T12:36:40;16.90;53.50
24144;DHT22;12307;50.828;6.080;2024-01-15T12:39:10;16.90;53.50
24144;DHT22;12307;50.828;6.080;2024-01-15T12:41:37;16.90;53.50
24144;DHT22;12307;50.828;6.080;2024-01-15T12:44:04;16.90;53.60
24144;DHT22;12307;50.828;6.080;2024-01-15T12:46:30;16.90;53.60
24144;DHT22;12307;50.828;6.080;2024-01-15T12:48:56;16.90;53.60
24144;DHT22;12307;50.828;6.080;2024-01-15T12:51:25;16.90;53.60
24144;DHT22;12307;50.828;6.080;2024-01-15T12:53:51;16.80;53.60
24144;DHT22;12307;50.828;6.080;2024-01-15T12:56:17;16.80;53.70
24144;DHT22;12307;50.828;6.080;2024-01-15T12:58:43;16.80;53.70
24144;DHT22;12307;50.828;6.080;2024-01-15T13:01:09;16.80;53.80
24144;DHT22;12307;50.828;6.080;2024-01-15T13:03:35;16.80;53.80
24144;DHT22;12307;50.828;6.080;2024-01-15T13:06:00;16.70;53.80
24144;DHT22;12307;50.828;6.080;2024-01-15T13:08:27;16.70;53.80
24144;DHT22;12307;50.828;6.080;2024-01-15T13:10:55;16.70;53.90
24144;DHT22;12307;50.828;6.080;2024-01-15T13:13:22;16.70;54.00
24144;DHT22;12307;50.828;6.080;2024-01-15T13:15:48;16.70;54.00
24144;DHT22;12307;50.828;6.080;2024-01-15T13:18:13;16.60;54.00
24144;DHT22;12307;50.828;6.080;2024-01-15T13:20:39;16.60;54.10
24144;DHT22;12307;50.828;6.080;2024-01-15T13:23:05;16.70;54.10
24144;DHT22;12307;50.828;6.080;2024-01-15T13:25:32;16.70;54.20
24144;DHT22;12307;50.828;6.080;2024-01-15T13:28:01;16.60;54.10
24144;DHT22;12307;50.828;6.080;2024-01-15T13:30:27;16.70;54.20
24144;DHT22;12307;50.828;6.080;2024-01-15T13:32:53;16.60;54.10
24144;DHT22;12307;50.828;6.080;2024-01-15T13:35:21;16.60;54.10
24144;DHT22;12307;50.828;6.080;2024-01-15T13:37:47;16.70;54.20
24144;DHT22;12307;50.828;6.080;2024-01-15T13:40:13;16.60;54.10
24144;DHT22;12307;50.828;6.080;2024-01-15T13:42:46;16.60;54.10
24144;DHT22;12307;50.828;6.080;2024-01-15T13:45:12;16.60;54.20
24144;DHT22;12307;50.828;6.080;2024-01-15T13:47:42;16.60;54.20
24144;DHT22;12307;50.828;6.080;2024-01-15T13:50:10;16.60;54.20
24144;DHT22;12307;50.828;6.080;2024-01-15T13:52:36;16.60;54.30
24144;DHT22;12307;50.828;6.080;2024-01-15T13:55:02;16.60;54.30
24144;DHT22;12307;50.828;6.080;2024-01-15T13:57:28;16.50;54.30
24144;DHT22;12307;50.828;6.080;2024-01-15T13:59:55;16.50;55.00
24144;DHT22;12307;50.828;6.080;2024-01-15T14:02:20;16.50;54.40
24144;DHT22;12307;50.828;6.080;2024-01-15T14:04:46;16.50;54.40
24144;DHT22;12307;50.828;6.080;2024-01-15T14:07:12;16.50;54.40
24144;DHT22;12307;50.828;6.080;2024-01-15T14:09:38;16.50;54.40
24144;DHT22;12307;50.828;6.080;2024-01-15T14:12:04;16.50;54.40
24144;DHT22;12307;50.828;6.080;2024-01-15T14:14:30;16.50;54.50
24144;DHT22;12307;50.828;6.080;2024-01-15T14:16:57;16.50;54.50
24144;DHT22;12307;50.828;6.080;2024-01-15T14:19:22;16.50;54.50
24144;DHT22;12307;50.828;6.080;2024-01-15T14:21:48;16.40;54.40
24144;DHT22;12307;50.828;6.080;2024-01-15T14:24:14;16.40;54.50
24144;DHT22;12307;50.828;6.080;2024-01-15T14:26:40;16.40;54.50
24144;DHT22;12307;50.828;6.080;2024-01-15T14:29:05;16.40;54.50
24144;DHT22;12307;50.828;6.080;2024-01-15T14:31:31;16.40;54.30
24144;DHT22;12307;50.828;6.080;2024-01-15T14:33:59;16.40;54.50
24144;DHT22;12307;50.828;6.080;2024-01-15T14:36:25;16.40;54.60
24144;DHT22;12307;50.828;6.080;2024-01-15T14:38:51;16.40;54.60
24144;DHT22;12307;50.828;6.080;2024-01-15T14:41:17;16.40;54.60
24144;DHT22;12307;50.828;6.080;2024-01-15T14:43:42;16.40;54.60
24144;DHT22;12307;50.828;6.080;2024-01-15T14:46:08;16.40;54.70
24144;DHT22;12307;50.828;6.080;2024-01-15T14:48:34;16.40;54.70
24144;DHT22;12307;50.828;6.080;2024-01-15T14:51:01;16.40;54.70
24144;DHT22;12307;50.828;6.080;2024-01-15T14:53:28;16.30;54.70
24144;DHT22;12307;50.828;6.080;2024-01-15T14:55:54;16.30;54.70
24144;DHT22;12307;50.828;6.080;2024-01-15T14:58:20;16.30;54.80
24144;DHT22;12307;50.828;6.080;2024-01-15T15:00:46;16.30;54.70
24144;DHT22;12307;50.828;6.080;2024-01-15T15:03:12;16.30;54.80
24144;DHT22;12307;50.828;6.080;2024-01-15T15:05:39;16.30;54.80
24144;DHT22;12307;50.828;6.080;2024-01-15T15:08:06;16.30;54.80
24144;DHT22;12307;50.828;6.080;2024-01-15T15:10:37;16.30;54.80
24144;DHT22;12307;50.828;6.080;2024-01-15T15:13:04;16.30;54.80
24144;DHT22;12307;50.828;6.080;2024-01-15T15:15:29;16.30;54.80
24144;DHT22;12307;50.828;6.080;2024-01-15T15:17:55;16.30;54.80
24144;DHT22;12307;50.828;6.080;2024-01-15T15:20:21;16.30;54.90
24144;DHT22;12307;50.828;6.080;2024-01-15T15:22:46;16.30;54.80
24144;DHT22;12307;50.828;6.080;2024-01-15T15:25:13;16.30;54.80